createdAt,value
2023-05-14T00:00:39.802Z,102214.88
2023-05-14T00:03:08.355Z,102226.16
2023-05-14T00:05:37.012Z,102219.03
2023-05-14T00:08:05.771Z,102218.88
2023-05-14T00:10:34.274Z,102217.75
2023-05-14T00:13:02.818Z,102214.25
2023-05-14T00:15:34.173Z,102207.97
2023-05-14T00:18:02.713Z,102205.31
2023-05-14T00:20:32.137Z,102198.06
2023-05-14T00:23:00.609Z,102203.03
2023-05-14T00:25:29.630Z,102189.78
2023-05-14T00:27:57.693Z,102187.13
2023-05-14T00:30:26.030Z,102184.50
2023-05-14T00:32:55.794Z,102180.19
2023-05-14T00:35:24.255Z,102181.00
2023-05-14T00:37:52.368Z,102182.66
2023-05-14T00:40:21.568Z,102171.41
2023-05-14T00:42:49.919Z,102166.09
2023-05-14T00:45:18.057Z,102164.28
2023-05-14T00:47:46.325Z,102161.63
2023-05-14T00:50:17.449Z,102159.81
2023-05-14T00:52:45.982Z,102152.84
2023-05-14T00:55:17.810Z,102155.66
2023-05-14T00:57:46.241Z,102151.34
2023-05-14T01:00:15.235Z,102140.75
2023-05-14T01:02:43.683Z,102141.72
2023-05-14T01:05:12.066Z,102139.09
2023-05-14T01:07:50.625Z,102143.72
2023-05-14T01:10:25.331Z,102139.25
2023-05-14T01:13:10.468Z,102138.41
2023-05-14T01:15:41.449Z,102137.59
2023-05-14T01:18:12.778Z,102131.28
2023-05-14T01:20:41.155Z,102126.13
2023-05-14T01:23:11.071Z,102132.28
2023-05-14T01:25:39.309Z,102119.19
2023-05-14T01:28:14.434Z,102118.34
2023-05-14T01:30:47.562Z,102120.16
2023-05-14T01:33:19.349Z,102119.34
2023-05-14T01:35:48.071Z,102112.22
2023-05-14T01:38:20.396Z,102107.91
2023-05-14T01:40:50.334Z,102105.28
2023-05-14T01:43:18.814Z,102103.63
2023-05-14T01:45:47.311Z,102108.09
2023-05-14T01:48:16.222Z,102101.94
2023-05-14T01:50:44.484Z,102105.56
2023-05-14T01:53:12.714Z,102106.56
2023-05-14T01:55:42.362Z,102104.06
2023-05-14T01:58:10.714Z,102111.19
2023-05-14T02:00:39.008Z,102105.22
2023-05-14T02:03:07.250Z,102107.84
2023-05-14T02:05:35.474Z,102103.72
2023-05-14T02:08:03.714Z,102101.19
2023-05-14T02:10:32.327Z,102102.19
2023-05-14T02:13:01.956Z,102098.72
2023-05-14T02:15:30.193Z,102099.84
2023-05-14T02:17:58.519Z,102098.19
2023-05-14T02:20:27.329Z,102101.13
2023-05-14T02:22:55.542Z,102097.00
2023-05-14T02:25:23.843Z,102095.16
2023-05-14T02:27:52.125Z,102097.97
2023-05-14T02:30:23.141Z,102091.84
2023-05-14T02:32:51.637Z,102097.44
2023-05-14T02:35:20.092Z,102093.97
2023-05-14T02:37:48.205Z,102093.28
2023-05-14T02:40:16.565Z,102092.44
2023-05-14T02:42:45.065Z,102093.59
2023-05-14T02:45:13.264Z,102103.38
2023-05-14T02:47:43.862Z,102100.03
2023-05-14T02:50:12.438Z,102091.09
2023-05-14T02:52:40.589Z,102092.91
2023-05-14T02:55:10.183Z,102090.44
2023-05-14T02:57:38.361Z,102091.41
2023-05-14T03:00:09.444Z,102095.06
2023-05-14T03:02:38.133Z,102093.25
2023-05-14T03:05:09.467Z,102085.44
2023-05-14T03:07:37.718Z,102089.22
2023-05-14T03:10:06.976Z,102081.44
2023-05-14T03:12:35.437Z,102085.06
2023-05-14T03:15:03.700Z,102089.69
2023-05-14T03:17:31.879Z,102088.69
2023-05-14T03:20:00.054Z,102081.75
2023-05-14T03:22:29.829Z,102078.41
2023-05-14T03:24:58.061Z,102082.19
2023-05-14T03:27:27.037Z,102074.56
2023-05-14T03:29:55.249Z,102084.59
2023-05-14T03:32:23.453Z,102083.75
2023-05-14T03:34:51.790Z,102081.25
2023-05-14T03:37:20.050Z,102085.03
2023-05-14T03:39:49.620Z,102082.56
2023-05-14T03:42:17.797Z,102079.22
2023-05-14T03:44:46.447Z,102082.72
2023-05-14T03:47:14.701Z,102090.50
2023-05-14T03:49:42.881Z,102079.06
2023-05-14T03:52:10.989Z,102070.31
2023-05-14T03:54:41.362Z,102067.00
2023-05-14T03:57:10.951Z,102062.38
2023-05-14T03:59:39.211Z,102066.00
2023-05-14T04:02:07.414Z,102062.38
2023-05-14T04:04:35.713Z,102057.91
2023-05-14T04:07:03.965Z,102061.22
2023-05-14T04:09:32.222Z,102055.09
2023-05-14T04:12:00.448Z,102047.84
2023-05-14T04:14:30.028Z,102042.41
2023-05-14T04:17:00.115Z,102047.56
2023-05-14T04:19:28.464Z,102043.94
2023-05-14T04:21:56.685Z,102035.19
2023-05-14T04:24:24.832Z,102041.31
2023-05-14T04:26:53.064Z,102040.31
2023-05-14T04:29:21.238Z,102033.03
2023-05-14T04:31:51.553Z,102038.31
2023-05-14T04:34:19.831Z,102036.38
2023-05-14T04:36:48.030Z,102031.75
2023-05-14T04:39:16.862Z,102026.31
2023-05-14T04:41:45.015Z,102025.31
2023-05-14T04:44:14.245Z,102027.16
2023-05-14T04:46:42.492Z,102030.28
2023-05-14T04:49:12.281Z,102025.53
2023-05-14T04:51:40.685Z,102023.72
2023-05-14T04:54:08.908Z,102025.22
2023-05-14T04:56:37.094Z,102025.88
2023-05-14T04:59:05.498Z,102018.63
2023-05-14T05:01:33.723Z,102018.47
2023-05-14T05:04:02.422Z,102025.28
2023-05-14T05:06:32.483Z,102020.00
2023-05-14T05:09:02.095Z,102015.53
2023-05-14T05:11:30.693Z,102018.00
2023-05-14T05:13:58.906Z,102020.31
2023-05-14T05:16:27.220Z,102021.13
2023-05-14T05:18:55.613Z,102018.63
2023-05-14T05:21:23.802Z,102015.81
2023-05-14T05:23:53.459Z,102004.78
2023-05-14T05:26:22.356Z,102006.44
2023-05-14T05:28:50.547Z,102000.00
2023-05-14T05:31:19.986Z,101996.53
2023-05-14T05:33:48.468Z,101998.19
2023-05-14T05:36:16.692Z,101997.19
2023-05-14T05:38:45.187Z,101996.19
2023-05-14T05:41:14.727Z,101997.84
2023-05-14T05:43:42.917Z,101991.59
2023-05-14T05:46:11.117Z,101990.59
2023-05-14T05:48:39.299Z,101990.59
2023-05-14T05:51:07.634Z,101983.16
2023-05-14T05:53:35.897Z,101972.41
2023-05-14T05:56:04.020Z,101975.72
2023-05-14T05:58:33.601Z,101976.41
2023-05-14T06:01:01.790Z,101971.78
2023-05-14T06:03:30.080Z,101979.56
2023-05-14T06:05:58.364Z,101972.59
2023-05-14T06:08:26.712Z,101969.81
2023-05-14T06:10:54.880Z,101969.47
2023-05-14T06:13:22.996Z,101965.84
2023-05-14T06:15:52.685Z,101968.34
2023-05-14T06:18:21.056Z,101970.81
2023-05-14T06:20:49.172Z,101966.53
2023-05-14T06:23:17.426Z,101972.47
2023-05-14T06:25:45.723Z,101968.88
2023-05-14T06:28:13.881Z,101967.69
2023-05-14T06:30:42.102Z,101965.88
2023-05-14T06:33:13.349Z,101968.53
2023-05-14T06:35:41.587Z,101955.97
2023-05-14T06:38:09.714Z,101955.97
2023-05-14T06:40:37.923Z,101953.97
2023-05-14T06:43:06.851Z,101953.84
2023-05-14T06:45:35.193Z,101955.47
2023-05-14T06:48:03.466Z,101954.31
2023-05-14T06:50:33.124Z,101947.06
2023-05-14T06:53:01.346Z,101948.41
2023-05-14T06:55:29.750Z,101946.09
2023-05-14T06:57:57.943Z,101941.28
2023-05-14T07:00:26.606Z,101941.66
2023-05-14T07:02:55.038Z,101931.53
2023-05-14T07:05:23.253Z,101928.38
2023-05-14T07:07:52.919Z,101932.56
2023-05-14T07:10:21.324Z,101931.91
2023-05-14T07:12:50.621Z,101930.25
2023-05-14T07:15:19.049Z,101929.06
2023-05-14T07:17:47.331Z,101932.22
2023-05-14T07:20:15.636Z,101920.63
2023-05-14T07:22:43.844Z,101915.31
2023-05-14T07:25:13.658Z,101919.16
2023-05-14T07:27:41.853Z,101919.81
2023-05-14T07:30:10.648Z,101919.00
2023-05-14T07:32:38.864Z,101913.84
2023-05-14T07:35:08.272Z,101910.75
2023-05-14T07:37:36.601Z,101900.78
2023-05-14T07:40:05.536Z,101912.91
2023-05-14T07:42:37.079Z,101905.41
2023-05-14T07:45:06.162Z,101907.44
2023-05-14T07:47:34.617Z,101905.91
2023-05-14T07:50:03.636Z,101898.63
2023-05-14T07:52:32.454Z,101898.63
2023-05-14T07:55:01.449Z,101899.97
2023-05-14T07:57:29.699Z,101895.66
2023-05-14T07:59:59.536Z,101894.16
2023-05-14T08:02:28.399Z,101897.47
2023-05-14T08:04:56.734Z,101889.16
2023-05-14T08:07:24.988Z,101885.81
2023-05-14T08:09:53.220Z,101897.09
2023-05-14T08:12:21.739Z,101894.41
2023-05-14T08:14:50.304Z,101894.09
2023-05-14T08:17:19.895Z,101893.72
2023-05-14T08:19:48.108Z,101892.09
2023-05-14T08:22:16.448Z,101888.59
2023-05-14T08:24:44.591Z,101896.38
2023-05-14T08:27:12.788Z,101904.03
2023-05-14T08:29:41.629Z,101896.38
2023-05-14T08:32:22.081Z,101900.03
2023-05-14T08:34:52.702Z,101910.78
2023-05-14T08:37:20.875Z,101917.63
2023-05-14T08:39:49.044Z,101927.22
2023-05-14T08:42:21.570Z,101915.97
2023-05-14T08:44:51.159Z,101919.25
2023-05-14T08:47:22.832Z,101922.91
2023-05-14T08:49:58.813Z,101922.53
2023-05-14T08:52:27.272Z,101925.00
2023-05-14T08:54:57.224Z,101913.03
2023-05-14T08:57:26.910Z,101920.16
2023-05-14T08:59:56.082Z,101913.59
2023-05-14T09:02:29.460Z,101920.91
2023-05-14T09:05:00.520Z,101911.81
2023-05-14T09:07:28.990Z,101914.97
2023-05-14T09:09:57.362Z,101913.34
2023-05-14T09:12:25.548Z,101912.19
2023-05-14T09:14:53.763Z,101908.13
2023-05-14T09:17:22.340Z,101904.31
2023-05-14T09:19:53.182Z,101908.28
2023-05-14T09:22:23.366Z,101916.59
2023-05-14T09:25:05.213Z,101903.69
2023-05-14T09:27:34.673Z,101905.66
2023-05-14T09:30:07.750Z,101896.88
2023-05-14T09:32:40.521Z,101897.13
2023-05-14T09:35:17.928Z,101899.41
2023-05-14T09:37:49.065Z,101895.78
2023-05-14T09:40:18.814Z,101892.97
2023-05-14T09:42:48.305Z,101902.16
2023-05-14T09:45:17.366Z,101894.84
2023-05-14T09:47:46.102Z,101894.00
2023-05-14T09:50:14.884Z,101889.66
2023-05-14T09:52:43.352Z,101886.75
2023-05-14T09:55:13.084Z,101886.16
2023-05-14T09:57:41.208Z,101880.44
2023-05-14T10:00:10.708Z,101883.00
2023-05-14T10:02:41.581Z,101883.09
2023-05-14T10:05:10.502Z,101887.16
2023-05-14T10:07:42.942Z,101894.25
2023-05-14T10:10:20.101Z,101890.69
2023-05-14T10:12:54.253Z,101892.47
2023-05-14T10:15:28.375Z,101894.47
2023-05-14T10:18:00.362Z,101894.94
2023-05-14T10:20:30.061Z,101898.34
2023-05-14T10:23:00.234Z,101900.50
2023-05-14T10:25:30.333Z,101898.63
2023-05-14T10:27:59.202Z,101905.75
2023-05-14T10:30:27.518Z,101905.50
2023-05-14T10:33:10.348Z,101908.91
2023-05-14T10:36:02.040Z,101902.63
2023-05-14T10:38:31.689Z,101906.84
2023-05-14T10:41:06.220Z,101909.72
2023-05-14T10:43:38.966Z,101902.75
2023-05-14T10:46:08.508Z,101910.06
2023-05-14T10:48:38.803Z,101909.91
2023-05-14T10:51:10.039Z,101898.75
2023-05-14T10:53:39.936Z,101902.22
2023-05-14T10:56:11.574Z,101896.88
2023-05-14T10:58:41.549Z,101896.97
2023-05-14T11:01:12.188Z,101898.38
2023-05-14T11:03:43.281Z,101900.59
2023-05-14T11:06:13.220Z,101901.59
2023-05-14T11:08:42.007Z,101897.28
2023-05-14T11:11:12.168Z,101899.88
2023-05-14T11:13:42.369Z,101897.34
2023-05-14T11:16:22.414Z,101904.19
2023-05-14T11:18:56.007Z,101898.28
2023-05-14T11:21:24.407Z,101903.59
2023-05-14T11:23:52.602Z,101901.44
2023-05-14T11:26:22.912Z,101901.59
2023-05-14T11:28:51.339Z,101895.56
2023-05-14T11:31:19.559Z,101898.28
2023-05-14T11:33:47.893Z,101897.56
2023-05-14T11:36:16.031Z,101894.91
2023-05-14T11:38:50.759Z,101900.41
2023-05-14T11:41:21.057Z,101915.66
2023-05-14T11:43:50.851Z,101917.78
2023-05-14T11:46:20.020Z,101934.88
2023-05-14T11:48:48.704Z,101937.78
2023-05-14T11:51:16.916Z,101929.69
2023-05-14T11:53:47.359Z,101941.50
2023-05-14T11:56:16.035Z,101942.84
2023-05-14T11:58:51.151Z,101951.50
2023-05-14T12:01:19.672Z,101950.66
2023-05-14T12:03:48.028Z,101941.38
2023-05-14T12:06:16.219Z,101944.84
2023-05-14T12:08:44.410Z,101936.19
2023-05-14T12:11:12.549Z,101944.34
2023-05-14T12:13:41.178Z,101942.81
2023-05-14T12:16:11.064Z,101944.47
2023-05-14T12:18:39.568Z,101947.13
2023-05-14T12:21:09.495Z,101948.66
2023-05-14T12:23:40.220Z,101945.34
2023-05-14T12:26:09.544Z,101946.31
2023-05-14T12:28:43.341Z,101946.13
2023-05-14T12:31:13.412Z,101943.63
2023-05-14T12:33:41.610Z,101939.09
2023-05-14T12:36:21.233Z,101943.78
2023-05-14T12:38:51.856Z,101942.25
2023-05-14T12:41:19.921Z,101924.78
2023-05-14T12:43:50.255Z,101935.09
2023-05-14T12:46:20.193Z,101942.38
2023-05-14T12:48:49.032Z,101944.59
2023-05-14T12:51:17.781Z,101947.13
2023-05-14T12:53:45.908Z,101959.13
2023-05-14T12:56:14.427Z,101961.63
2023-05-14T12:58:43.019Z,101969.09
2023-05-14T13:01:11.308Z,101972.09
2023-05-14T13:03:41.160Z,101975.09
2023-05-14T13:06:09.607Z,101968.78
2023-05-14T13:08:37.762Z,101968.28
2023-05-14T13:11:06.042Z,101969.09
2023-05-14T13:13:34.196Z,101968.94
2023-05-14T13:16:02.524Z,101965.75
2023-05-14T13:18:30.752Z,101967.38
2023-05-14T13:21:00.561Z,101975.72
2023-05-14T13:23:28.853Z,101976.03
2023-05-14T13:25:58.513Z,101977.41
2023-05-14T13:28:26.781Z,101988.66
2023-05-14T13:31:07.437Z,101987.16
2023-05-14T13:33:39.939Z,101994.47
2023-05-14T13:36:11.911Z,101984.38
2023-05-14T13:38:40.607Z,101984.19
2023-05-14T13:41:09.503Z,101989.31
2023-05-14T13:43:37.649Z,101996.78
2023-05-14T13:46:07.176Z,101995.94
2023-05-14T13:48:36.466Z,101998.59
2023-05-14T13:51:05.027Z,101992.66
2023-05-14T13:53:34.665Z,102005.75
2023-05-14T13:56:02.877Z,102005.25
2023-05-14T13:58:31.382Z,102009.56
2023-05-14T14:00:59.455Z,102000.91
2023-05-14T14:03:27.884Z,101991.94
2023-05-14T14:05:56.080Z,102000.84
2023-05-14T14:08:24.639Z,101996.66
2023-05-14T14:10:55.664Z,101995.78
2023-05-14T14:13:24.595Z,101995.63
2023-05-14T14:15:53.057Z,101981.09
2023-05-14T14:18:21.677Z,101992.38
2023-05-14T14:20:49.900Z,101988.59
2023-05-14T14:23:18.035Z,101988.84
2023-05-14T14:25:46.599Z,101984.59
2023-05-14T14:28:16.232Z,101982.41
2023-05-14T14:30:44.984Z,101991.84
2023-05-14T14:33:13.224Z,101988.16
2023-05-14T14:35:41.432Z,101987.91
2023-05-14T14:38:09.605Z,101996.19
2023-05-14T14:40:37.793Z,101980.88
2023-05-14T14:43:06.028Z,101987.03
2023-05-14T14:45:35.744Z,101983.19
2023-05-14T14:48:27.210Z,101980.84
2023-05-14T14:50:55.932Z,101988.56
2023-05-14T14:53:25.113Z,101985.94
2023-05-14T14:55:53.720Z,101976.38
2023-05-14T14:58:22.338Z,101979.69
2023-05-14T15:00:54.226Z,101980.72
2023-05-14T15:03:23.073Z,101991.94
2023-05-14T15:05:53.453Z,101980.25
2023-05-14T15:08:25.677Z,101982.91
2023-05-14T15:10:53.885Z,101989.81
2023-05-14T15:13:22.057Z,101988.44
2023-05-14T15:15:52.281Z,101991.91
2023-05-14T15:18:20.681Z,101981.88
2023-05-14T15:20:49.620Z,102002.75
2023-05-14T15:23:18.170Z,102001.44
2023-05-14T15:25:46.419Z,102004.50
2023-05-14T15:28:14.640Z,102001.75
2023-05-14T15:30:42.913Z,102004.59
2023-05-14T15:33:12.513Z,102003.28
2023-05-14T15:35:40.671Z,102002.97
2023-05-14T15:38:09.160Z,102000.22
2023-05-14T15:40:37.407Z,101991.25
2023-05-14T15:43:05.653Z,101988.75
2023-05-14T15:45:33.960Z,101989.38
2023-05-14T15:48:02.219Z,101985.03
2023-05-14T15:50:31.897Z,101987.78
2023-05-14T15:53:01.614Z,101990.59
2023-05-14T15:55:29.837Z,101981.25
2023-05-14T15:57:58.262Z,101991.56
2023-05-14T16:00:26.880Z,101986.53
2023-05-14T16:02:56.476Z,101984.22
2023-05-14T16:05:24.710Z,101987.34
2023-05-14T16:07:54.404Z,101986.66
2023-05-14T16:10:22.856Z,101992.91
2023-05-14T16:12:51.256Z,101988.22
2023-05-14T16:15:19.524Z,101989.16
2023-05-14T16:17:47.841Z,101997.63
2023-05-14T16:20:16.793Z,101989.25
2023-05-14T16:22:45.249Z,101998.75
2023-05-14T16:25:14.800Z,101994.31
2023-05-14T16:27:43.185Z,102003.25
2023-05-14T16:30:12.103Z,101999.78
2023-05-14T16:32:42.020Z,101997.38
2023-05-14T16:35:11.041Z,101996.81
2023-05-14T16:37:39.216Z,101994.69
2023-05-14T16:40:11.591Z,102006.84
2023-05-14T16:42:41.538Z,102003.22
2023-05-14T16:45:10.970Z,101997.22
2023-05-14T16:47:39.155Z,102012.72
2023-05-14T16:50:08.943Z,102011.72
2023-05-14T16:52:37.174Z,102016.88
2023-05-14T16:55:05.963Z,102015.56
2023-05-14T16:57:34.420Z,102019.13
2023-05-14T17:00:06.237Z,102018.47
2023-05-14T17:02:34.648Z,102028.63
2023-05-14T17:05:04.148Z,102026.97
2023-05-14T17:07:32.412Z,102026.34
2023-05-14T17:10:01.027Z,102035.22
2023-05-14T17:12:29.335Z,102032.09
2023-05-14T17:14:57.504Z,102037.44
2023-05-14T17:17:27.177Z,102040.44
2023-05-14T17:19:55.241Z,102044.97
2023-05-14T17:22:23.432Z,102047.53
2023-05-14T17:24:51.713Z,102047.84
2023-05-14T17:27:20.091Z,102050.22
2023-05-14T17:29:51.094Z,102048.25
2023-05-14T17:32:19.624Z,102045.78
2023-05-14T17:34:49.106Z,102053.91
2023-05-14T17:37:17.305Z,102058.22
2023-05-14T17:39:45.478Z,102053.59
2023-05-14T17:42:13.587Z,102051.13
2023-05-14T17:44:42.283Z,102048.66
2023-05-14T17:47:10.821Z,102052.66
2023-05-14T17:49:39.123Z,102066.31
2023-05-14T17:52:09.027Z,102063.31
2023-05-14T17:54:37.300Z,102061.31
2023-05-14T17:57:05.887Z,102070.31
2023-05-14T17:59:34.060Z,102069.31
2023-05-14T18:02:02.249Z,102070.13
2023-05-14T18:04:30.540Z,102077.09
2023-05-14T18:06:58.731Z,102075.31
2023-05-14T18:09:28.721Z,102073.28
2023-05-14T18:11:57.108Z,102078.25
2023-05-14T18:14:25.476Z,102083.25
2023-05-14T18:16:53.848Z,102080.44
2023-05-14T18:19:22.042Z,102093.41
2023-05-14T18:21:50.827Z,102098.53
2023-05-14T18:24:19.159Z,102091.38
2023-05-14T18:26:48.773Z,102095.22
2023-05-14T18:29:17.002Z,102091.88
2023-05-14T18:31:45.184Z,102100.19
2023-05-14T18:34:13.344Z,102101.84
2023-05-14T18:36:41.523Z,102095.88
2023-05-14T18:39:09.817Z,102105.00
2023-05-14T18:41:37.960Z,102103.19
2023-05-14T18:44:07.695Z,102110.47
2023-05-14T18:46:35.980Z,102114.47
2023-05-14T18:49:04.535Z,102120.59
2023-05-14T18:51:32.647Z,102115.78
2023-05-14T18:54:00.914Z,102123.75
2023-05-14T18:56:29.103Z,102132.03
2023-05-14T18:58:57.240Z,102134.19
2023-05-14T19:01:26.853Z,102132.03
2023-05-14T19:03:55.404Z,102127.06
2023-05-14T19:06:23.751Z,102128.88
2023-05-14T19:08:52.211Z,102132.00
2023-05-14T19:11:20.386Z,102130.84
2023-05-14T19:13:49.729Z,102129.00
2023-05-14T19:16:18.091Z,102139.13
2023-05-14T19:18:47.835Z,102140.59
2023-05-14T19:21:16.204Z,102149.34
2023-05-14T19:23:44.377Z,102152.78
2023-05-14T19:26:12.559Z,102153.78
2023-05-14T19:28:40.867Z,102160.41
2023-05-14T19:31:09.232Z,102161.41
2023-05-14T19:33:37.521Z,102165.06
2023-05-14T19:36:08.225Z,102176.13
2023-05-14T19:38:36.462Z,102185.56
2023-05-14T19:41:04.938Z,102187.66
2023-05-14T19:43:33.032Z,102184.66
2023-05-14T19:46:01.782Z,102183.47
2023-05-14T19:48:31.359Z,102182.47
2023-05-14T19:50:59.594Z,102184.78
2023-05-14T19:53:30.704Z,102188.72
2023-05-14T19:55:59.261Z,102191.66
2023-05-14T19:58:27.814Z,102185.88
2023-05-14T20:00:57.561Z,102196.13
2023-05-14T20:03:26.899Z,102196.59
2023-05-14T20:05:56.002Z,102203.69
2023-05-14T20:08:25.098Z,102207.47
2023-05-14T20:10:54.746Z,102210.31
2023-05-14T20:13:25.015Z,102209.59
2023-05-14T20:15:55.230Z,102215.19
2023-05-14T20:18:23.573Z,102216.34
2023-05-14T20:20:51.918Z,102221.00
2023-05-14T20:23:20.832Z,102223.94
2023-05-14T20:25:49.187Z,102224.22
2023-05-14T20:28:18.903Z,102226.34
2023-05-14T20:30:47.229Z,102229.78
2023-05-14T20:33:15.660Z,102235.00
2023-05-14T20:35:44.272Z,102239.94
2023-05-14T20:38:12.942Z,102234.25
2023-05-14T20:40:41.240Z,102232.34
2023-05-14T20:43:09.459Z,102242.72
2023-05-14T20:45:39.525Z,102237.88
2023-05-14T20:48:10.321Z,102240.13
2023-05-14T20:50:38.585Z,102247.00
2023-05-14T20:53:06.923Z,102251.63
2023-05-14T20:55:35.241Z,102249.97
2023-05-14T20:58:03.555Z,102252.31
2023-05-14T21:00:31.883Z,102252.75
2023-05-14T21:03:01.761Z,102253.19
2023-05-14T21:05:30.288Z,102253.50
2023-05-14T21:07:58.602Z,102269.69
2023-05-14T21:10:26.886Z,102272.59
2023-05-14T21:12:55.170Z,102268.56
2023-05-14T21:15:23.731Z,102281.13
2023-05-14T21:17:52.136Z,102282.94
2023-05-14T21:20:21.971Z,102288.91
2023-05-14T21:22:50.265Z,102280.84
2023-05-14T21:25:18.539Z,102284.44
2023-05-14T21:27:46.712Z,102285.59
2023-05-14T21:30:15.628Z,102288.63
2023-05-14T21:32:43.816Z,102296.72
2023-05-14T21:35:12.081Z,102303.44
2023-05-14T21:37:41.913Z,102306.53
2023-05-14T21:40:12.601Z,102310.13
2023-05-14T21:42:40.925Z,102318.38
2023-05-14T21:45:09.884Z,102317.25
2023-05-14T21:47:38.568Z,102313.22
2023-05-14T21:50:07.833Z,102314.22
2023-05-14T21:52:36.058Z,102324.38
2023-05-14T21:55:06.347Z,102320.09
2023-05-14T21:57:34.852Z,102318.28
2023-05-14T22:00:03.664Z,102322.19
2023-05-14T22:02:32.212Z,102322.47
2023-05-14T22:05:00.470Z,102323.72
2023-05-14T22:07:28.771Z,102325.41
2023-05-14T22:09:56.871Z,102329.16
2023-05-14T22:12:26.887Z,102326.66
2023-05-14T22:14:55.235Z,102326.09
2023-05-14T22:17:23.538Z,102329.00
2023-05-14T22:19:51.792Z,102323.63
2023-05-14T22:22:20.011Z,102324.88
2023-05-14T22:24:48.140Z,102336.41
2023-05-14T22:27:16.223Z,102332.91
2023-05-14T22:29:45.834Z,102337.66
2023-05-14T22:32:14.094Z,102343.06
2023-05-14T22:34:42.788Z,102331.97
2023-05-14T22:37:11.046Z,102336.38
2023-05-14T22:39:39.325Z,102338.50
2023-05-14T22:42:07.655Z,102333.47
2023-05-14T22:44:37.179Z,102348.91
2023-05-14T22:47:07.420Z,102345.44
2023-05-14T22:49:35.591Z,102344.03
2023-05-14T22:52:03.828Z,102346.13
2023-05-14T22:54:32.018Z,102352.22
2023-05-14T22:57:00.343Z,102354.34
2023-05-14T22:59:28.599Z,102349.88
2023-05-14T23:01:56.906Z,102349.88
2023-05-14T23:04:26.592Z,102344.03
2023-05-14T23:06:54.930Z,102351.66
2023-05-14T23:09:23.532Z,102342.19
2023-05-14T23:11:51.975Z,102348.69
2023-05-14T23:14:20.130Z,102352.47
2023-05-14T23:16:48.366Z,102349.09
2023-05-14T23:19:16.854Z,102354.78
2023-05-14T23:21:46.746Z,102359.66
2023-05-14T23:24:15.050Z,102360.75
2023-05-14T23:26:43.458Z,102354.50
2023-05-14T23:29:11.817Z,102362.94
2023-05-14T23:31:41.169Z,102367.09
2023-05-14T23:34:09.644Z,102360.16
2023-05-14T23:36:39.831Z,102367.75
2023-05-14T23:39:09.463Z,102365.66
2023-05-14T23:41:37.726Z,102359.94
2023-05-14T23:44:06.273Z,102362.59
2023-05-14T23:46:35.475Z,102360.53
2023-05-14T23:49:03.770Z,102358.00
2023-05-14T23:51:31.984Z,102367.63
2023-05-14T23:54:00.169Z,102368.69
2023-05-14T23:56:30.122Z,102369.47
2023-05-14T23:58:58.528Z,102362.53
